logo
Rechercher aéroport 
image banner adimage banner adimage banner ad
image banner ad

OPMT - Multan Int'l

Situé à Multan, Pakistan

ICAO - OPMT, IATA - MUX

Données fournies par Airmate  

Information générale

Coordonnées: N30°12'12" E71°25'9"
Élévation : 403 feet MSL.
 
Évalué:
Voir évaluations:
[VIEW]
Voir autres Aéroports à Punjab

Données opérationnelles

Special qualification required
Heure actuelle UTC:
Heure actuelle locale:
Météo
METAR: OPMT 282000Z 00000KT 4000 HZ NSC 34/18 Q0991 NOSIG
TAF: TAF OPMT 281700Z 2818/2924 31010KT 4000 HZ NSC TN28/2901Z TX46/2910Z PROB30 TEMPO 2820/2824 36020KT 2000 DRDU NSC
Voir NOTAMs / SUP AIP / TFR affectant cet aéroport [VIEW]
Fréquences de communication: [VIEW]

Pistes:

Identifiant RWYQFULongueur (ft)Largeur (ft)SurfaceLDA (ft)
18183°10512151ASP
3610512151ASP

Coordonnées de l'aéroport

Adresse: Multan Pakistan

Vue satellite de OPMT